KMSY/MSY METAR and TAF weather

Enter ICAO airport designator
Station Type Date Time Source
KMSY METAR 2021/04/13 05:53 UTC NOAA

KMSY 130553Z 12006KT 10SM SCT160 19/16 A2995 RMK AO2 SLP145 T01890156 10250 20189 402830161 58002


Station Type Date Time Source
KMSY Decoded METAR 2021/04/13 05:53 UTC NOAA

NEW ORLEANS INTERNATIONAL AIRPORT, LA, United States (KMSY) 30-00N 90-15W 5M
Apr 13, 2021 - 01:53 AM EDT / 2021.04.13 0553 UTC
Wind: from the ESE (120 degrees) at 7 MPH (6 KT):0
Visibility: 10 mile(s):0
Sky conditions: partly cloudy
Temperature: 66.0 F (18.9 C)
Dew Point: 60.1 F (15.6 C)
Relative Humidity: 81%
Pressure (altimeter): 29.95 in. Hg (1014 hPa)
Pressure tendency: 0.01 inches (0.2 hPa) lower than three hours ago
ob: KMSY 130553Z 12006KT 10SM SCT160 19/16 A2995 RMK AO2 SLP145 T01890156 10250 20189 402830161 58002
cycle: 6

Station Type Date Time Source
KMSY TAF 2021/04/13 06:22 UTC NOAA

TAF KMSY 130520Z 1306/1412 13007KT P6SM FEW150
FM131600 14008KT P6SM VCTS OVC025CB
FM132000 13009KT P6SM VCTS SCT020CB OVC035
FM140600 14010G18KT P6SM -SHRA SCT015 BKN070
FM140800 17010KT P6SM SCT015 BKN070

Example: see airport list